Terminal Aerodrome Forecast
Issued by NWS

Home | Current Version | Previous Version | Text Only | Print | Product List | Glossary On
Versions: 1 2 3 4 5 6 7 8 9 10 11 12 13 14 15 16
117
FTUS45 KFGZ 270538
TAFSEZ
TAF
KSEZ 270538Z 2706/2806 18007KT P6SM OVC050
     FM270900 22010G20KT P6SM OVC030
     FM271700 21012G22KT 3SM -SHRA OVC020
      TEMPO 2720/2724 2SM RA OVC012
     FM280000 23010KT 2SM RA OVC008=

USA.gov is the U.S. government's official web portal to all federal, state and local government web resources and services.